Time;durP1;ratioP1;P1;durP2;ratioP2;P2;SDS_P1;SDS_P2;PMS_P1;PMS_P2;Temp;Humidity;BMP_temperature;BMP_pressure;BME280_temperature;BME280_humidity;BME280_pressure;Samples;Min_cycle;Max_cycle;Signal;HPM_P1;HPM_P2
2022/10/19 00:00:27;;;;;;;;;10.00;10.00;;;;;-147.17;100.00;-15917.19;4998310;27;51834;-43
2022/10/19 00:02:52;;;;;;;;;13.00;12.33;;;;;-147.17;100.00;-15917.19;4997361;27;51175;-44
2022/10/19 00:05:18;;;;;;;;;13.00;11.67;;;;;-147.17;100.00;-15917.19;4999581;28;51191;-43
2022/10/19 00:07:43;;;;;;;;;9.00;9.00;;;;;-147.17;100.00;-15917.19;5004636;27;51244;-43
2022/10/19 00:10:08;;;;;;;;;13.33;12.33;;;;;-147.17;100.00;-15917.19;4998888;27;63884;-43
2022/10/19 00:12:34;;;;;;;;;13.00;11.67;;;;;-147.17;100.00;-15917.19;4996667;27;50954;-43
2022/10/19 00:14:59;;;;;;;;;10.33;10.33;;;;;-147.17;100.00;-15917.19;5009646;27;50957;-43
2022/10/19 00:17:25;;;;;;;;;9.33;9.00;;;;;-147.17;100.00;-15917.19;5002053;27;51020;-44
2022/10/19 00:19:50;;;;;;;;;10.00;10.00;;;;;-147.17;100.00;-15917.19;4999341;27;52161;-43
2022/10/19 00:22:15;;;;;;;;;10.00;9.33;;;;;-147.17;100.00;-15917.19;4998599;27;51182;-43
2022/10/19 00:24:41;;;;;;;;;10.00;10.00;;;;;-147.17;100.00;-15917.19;4995012;27;51025;-44
2022/10/19 00:27:06;;;;;;;;;11.00;10.00;;;;;-147.17;100.00;-15917.19;5058506;27;51118;-44
2022/10/19 00:29:31;;;;;;;;;8.67;7.67;;;;;-147.17;100.00;-15917.19;5001388;27;52708;-44
2022/10/19 00:31:57;;;;;;;;;11.00;11.00;;;;;-147.17;100.00;-15917.19;5060873;27;51183;-44
2022/10/19 00:34:23;;;;;;;;;8.33;8.00;;;;;-147.17;100.00;-15917.19;4988273;27;51205;-44
2022/10/19 00:36:48;;;;;;;;;9.00;9.00;;;;;-147.17;100.00;-15917.19;4993804;28;51240;-43
2022/10/19 00:39:15;;;;;;;;;10.33;8.33;;;;;-147.17;100.00;-15917.19;5004227;27;51998;-44
2022/10/19 00:41:41;;;;;;;;;8.33;8.00;;;;;-147.17;100.00;-15917.19;4997545;27;51239;-43
2022/10/19 00:44:12;;;;;;;;;8.00;8.00;;;;;-147.17;100.00;-15917.19;5000430;28;51156;-43
2022/10/19 00:46:44;;;;;;;;;11.33;11.00;;;;;-147.17;100.00;-15917.19;5002728;27;51475;-44
2022/10/19 00:49:22;;;;;;;;;12.00;12.00;;;;;-147.17;100.00;-15917.19;5002626;27;51931;-43
2022/10/19 00:51:52;;;;;;;;;10.00;10.00;;;;;-147.17;100.00;-15917.19;5072748;27;50918;-43
2022/10/19 00:54:18;;;;;;;;;9.00;9.00;;;;;-147.17;100.00;-15917.19;5008756;27;51092;-44
2022/10/19 00:56:46;;;;;;;;;9.67;9.67;;;;;-147.17;100.00;-15917.19;5004566;27;51072;-44
2022/10/19 00:59:15;;;;;;;;;10.00;9.33;;;;;-147.17;100.00;-15917.19;5003571;27;51146;-44
2022/10/19 01:01:43;;;;;;;;;10.33;10.00;;;;;-147.17;100.00;-15917.19;4995563;27;51260;-44
2022/10/19 01:04:10;;;;;;;;;12.00;12.00;;;;;-147.17;100.00;-15917.19;5000174;27;50971;-43
2022/10/19 01:06:35;;;;;;;;;9.67;9.67;;;;;-147.17;100.00;-15917.19;5070311;27;51166;-44
2022/10/19 01:09:02;;;;;;;;;11.00;11.00;;;;;-147.17;100.00;-15917.19;4992852;27;54667;-43
2022/10/19 01:11:33;;;;;;;;;10.00;9.33;;;;;-147.17;100.00;-15917.19;5003535;27;51078;-44
2022/10/19 01:14:01;;;;;;;;;11.67;9.33;;;;;-147.17;100.00;-15917.19;5004770;27;51150;-46
2022/10/19 01:16:34;;;;;;;;;9.67;9.67;;;;;-147.17;100.00;-15917.19;5002725;27;51379;-44
2022/10/19 01:19:05;;;;;;;;;11.33;11.00;;;;;-147.17;100.00;-15917.19;4999809;27;53187;-44
2022/10/19 01:21:42;;;;;;;;;9.33;8.67;;;;;-147.17;100.00;-15917.19;5002362;28;51145;-44
2022/10/19 01:24:19;;;;;;;;;9.00;9.00;;;;;-147.17;100.00;-15917.19;5007020;27;51031;-42
2022/10/19 01:27:11;;;;;;;;;9.00;9.00;;;;;-147.17;100.00;-15917.19;4996383;27;51318;-43
2022/10/19 01:29:46;;;;;;;;;10.00;9.33;;;;;-147.17;100.00;-15917.19;5000692;27;52680;-43
2022/10/19 01:32:21;;;;;;;;;7.00;6.00;;;;;-147.17;100.00;-15917.19;5001767;27;51029;-44
2022/10/19 01:35:07;;;;;;;;;9.00;9.00;;;;;-147.17;100.00;-15917.19;4994100;27;51488;-44
2022/10/19 01:37:43;;;;;;;;;9.00;9.00;;;;;-147.17;100.00;-15917.19;4994591;27;51132;-44
2022/10/19 01:40:14;;;;;;;;;11.00;10.33;;;;;-147.17;100.00;-15917.19;5004863;27;51928;-44
2022/10/19 01:42:49;;;;;;;;;10.00;9.00;;;;;-147.17;100.00;-15917.19;5007165;27;51009;-44
2022/10/19 01:45:20;;;;;;;;;9.00;9.00;;;;;-147.17;100.00;-15917.19;5007602;28;51135;-44
2022/10/19 01:48:02;;;;;;;;;7.67;7.67;;;;;-147.17;100.00;-15917.19;5080460;27;51379;-44
2022/10/19 01:50:27;;;;;;;;;8.00;8.00;;;;;-147.17;100.00;-15917.19;4993622;27;53051;-44
2022/10/19 01:52:54;;;;;;;;;8.00;8.00;;;;;-147.17;100.00;-15917.19;4998657;27;51135;-44
2022/10/19 01:55:21;;;;;;;;;10.00;10.00;;;;;-147.17;100.00;-15917.19;4999300;27;51317;-46
2022/10/19 01:57:54;;;;;;;;;8.00;8.00;;;;;-147.17;100.00;-15917.19;4998252;27;51179;-44
2022/10/19 02:00:22;;;;;;;;;9.67;9.33;;;;;-147.17;100.00;-15917.19;4997143;27;51993;-44
2022/10/19 02:02:51;;;;;;;;;7.67;7.33;;;;;-147.17;100.00;-15917.19;4993324;27;53779;-44
2022/10/19 02:05:20;;;;;;;;;9.67;9.67;;;;;-147.17;100.00;-15917.19;5002539;27;51523;-44
2022/10/19 02:07:53;;;;;;;;;9.33;9.33;;;;;-147.17;100.00;-15917.19;4998452;27;51347;-44
2022/10/19 02:10:19;;;;;;;;;8.00;8.00;;;;;-147.17;100.00;-15917.19;4996722;27;51343;-44
2022/10/19 02:12:46;;;;;;;;;9.67;7.00;;;;;-147.17;100.00;-15917.19;4995338;27;51064;-44
2022/10/19 02:15:18;;;;;;;;;9.67;9.00;;;;;-147.17;100.00;-15917.19;5006753;28;50891;-44
2022/10/19 02:17:47;;;;;;;;;12.00;10.00;;;;;-147.17;100.00;-15917.19;4998467;27;51168;-44
2022/10/19 02:20:15;;;;;;;;;9.00;9.00;;;;;-147.17;100.00;-15917.19;4998331;27;51200;-44
2022/10/19 02:22:41;;;;;;;;;10.00;10.00;;;;;-147.17;100.00;-15917.19;5001364;27;52729;-44
2022/10/19 02:25:08;;;;;;;;;10.33;9.00;;;;;-147.17;100.00;-15917.19;4995913;27;51031;-44
2022/10/19 02:27:35;;;;;;;;;10.33;10.00;;;;;-147.17;100.00;-15917.19;4998734;27;51296;-44
2022/10/19 02:30:01;;;;;;;;;10.67;9.67;;;;;-147.17;100.00;-15917.19;4992498;27;53689;-43
2022/10/19 02:32:27;;;;;;;;;8.33;8.33;;;;;-147.17;100.00;-15917.19;5001826;28;50939;-43
2022/10/19 02:34:53;;;;;;;;;8.33;8.33;;;;;-147.17;100.00;-15917.19;5000588;27;51688;-44
2022/10/19 02:37:18;;;;;;;;;12.00;12.00;;;;;-147.17;100.00;-15917.19;5008039;28;51097;-44
2022/10/19 02:39:43;;;;;;;;;11.33;10.67;;;;;-147.17;100.00;-15917.19;4994206;27;52986;-43
2022/10/19 02:42:12;;;;;;;;;12.00;10.00;;;;;-147.17;100.00;-15917.19;5000261;27;51144;-43
2022/10/19 02:44:52;;;;;;;;;8.00;8.00;;;;;-147.17;100.00;-15917.19;5009246;27;51195;-43
2022/10/19 02:47:22;;;;;;;;;8.33;8.00;;;;;-147.17;100.00;-15917.19;4993524;28;50964;-43
2022/10/19 02:49:48;;;;;;;;;12.00;11.00;;;;;-147.17;100.00;-15917.19;4993073;27;50995;-43
2022/10/19 02:52:13;;;;;;;;;8.67;8.67;;;;;-147.17;100.00;-15917.19;5004240;27;51052;-43
2022/10/19 02:54:41;;;;;;;;;10.00;9.00;;;;;-147.17;100.00;-15917.19;4997169;27;51351;-44
2022/10/19 02:57:21;;;;;;;;;9.00;9.00;;;;;-147.17;100.00;-15917.19;4998581;27;51295;-43
2022/10/19 02:59:47;;;;;;;;;9.00;8.00;;;;;-147.17;100.00;-15917.19;5009570;28;51926;-43
2022/10/19 03:02:13;;;;;;;;;10.67;10.67;;;;;-147.17;100.00;-15917.19;5007235;27;51006;-44
2022/10/19 03:04:40;;;;;;;;;11.00;10.00;;;;;-147.17;100.00;-15917.19;5000478;27;51131;-43
2022/10/19 03:07:07;;;;;;;;;10.00;9.33;;;;;-147.17;100.00;-15917.19;5009205;27;51102;-43
2022/10/19 03:09:32;;;;;;;;;8.00;8.00;;;;;-147.17;100.00;-15917.19;5001206;27;50942;-43
2022/10/19 03:11:57;;;;;;;;;11.67;9.67;;;;;-147.17;100.00;-15917.19;5001924;27;51133;-43
2022/10/19 03:14:23;;;;;;;;;8.00;8.00;;;;;-147.17;100.00;-15917.19;5064064;27;51063;-44
2022/10/19 03:16:48;;;;;;;;;7.33;7.33;;;;;-147.17;100.00;-15917.19;5005151;27;51208;-43
2022/10/19 03:19:13;;;;;;;;;9.67;9.67;;;;;-147.17;100.00;-15917.19;5004853;27;52535;-43
2022/10/19 03:21:39;;;;;;;;;10.67;10.67;;;;;-147.17;100.00;-15917.19;5062753;27;51083;-43
2022/10/19 03:24:04;;;;;;;;;9.00;9.00;;;;;-147.17;100.00;-15917.19;5005747;27;51204;-43
2022/10/19 03:26:30;;;;;;;;;9.67;9.67;;;;;-147.17;100.00;-15917.19;5070345;27;51398;-44
2022/10/19 03:28:55;;;;;;;;;8.00;8.00;;;;;-147.17;100.00;-15917.19;5005857;27;51121;-44
2022/10/19 03:31:20;;;;;;;;;9.00;9.00;;;;;-147.17;100.00;-15917.19;5074469;27;51163;-44
2022/10/19 03:33:46;;;;;;;;;7.00;6.67;;;;;-147.17;100.00;-15917.19;4999596;27;51119;-44
2022/10/19 03:36:18;;;;;;;;;10.00;9.00;;;;;-147.17;100.00;-15917.19;5003938;27;51131;-43
2022/10/19 03:38:43;;;;;;;;;5.33;5.00;;;;;-147.17;100.00;-15917.19;5073579;27;52303;-44
2022/10/19 03:41:08;;;;;;;;;9.00;9.00;;;;;-147.17;100.00;-15917.19;4995672;27;51399;-44
2022/10/19 03:43:34;;;;;;;;;7.00;7.00;;;;;-147.17;100.00;-15917.19;5007090;28;51085;-43
2022/10/19 03:45:59;;;;;;;;;10.00;10.00;;;;;-147.17;100.00;-15917.19;4995154;27;51304;-44
2022/10/19 03:48:25;;;;;;;;;9.00;9.00;;;;;-147.17;100.00;-15917.19;4994894;28;55353;-43
2022/10/19 03:51:09;;;;;;;;;9.67;9.67;;;;;-147.17;100.00;-15917.19;4998509;27;51117;-43
2022/10/19 03:53:35;;;;;;;;;12.67;10.00;;;;;-147.17;100.00;-15917.19;5073745;27;51463;-43
2022/10/19 03:56:02;;;;;;;;;9.33;9.00;;;;;-147.17;100.00;-15917.19;4996978;27;51056;-44
2022/10/19 03:58:28;;;;;;;;;9.67;9.67;;;;;-147.17;100.00;-15917.19;5002949;27;52058;-43
2022/10/19 04:00:53;;;;;;;;;12.00;11.00;;;;;-147.17;100.00;-15917.19;5067753;27;51069;-43
2022/10/19 04:03:19;;;;;;;;;8.00;8.00;;;;;-147.17;100.00;-15917.19;5058380;27;51203;-43
2022/10/19 04:05:44;;;;;;;;;9.00;8.33;;;;;-147.17;100.00;-15917.19;4996129;27;51213;-43
2022/10/19 04:08:09;;;;;;;;;10.00;9.67;;;;;-147.17;100.00;-15917.19;4995793;27;54150;-44
2022/10/19 04:10:34;;;;;;;;;9.00;9.00;;;;;-147.17;100.00;-15917.19;5005464;27;51352;-43
2022/10/19 04:13:00;;;;;;;;;10.00;9.33;;;;;-147.17;100.00;-15917.19;4997348;27;51068;-44
2022/10/19 04:15:25;;;;;;;;;9.00;9.00;;;;;-147.17;100.00;-15917.19;4997314;27;51361;-43
2022/10/19 04:17:50;;;;;;;;;8.33;8.33;;;;;-147.17;100.00;-15917.19;5006566;27;51999;-43
2022/10/19 04:20:16;;;;;;;;;11.33;10.67;;;;;-147.17;100.00;-15917.19;4994196;27;51266;-43
2022/10/19 04:22:41;;;;;;;;;11.00;9.33;;;;;-147.17;100.00;-15917.19;4990039;27;51230;-43
2022/10/19 04:25:10;;;;;;;;;10.00;9.67;;;;;-147.17;100.00;-15917.19;4996373;27;55258;-43
2022/10/19 04:27:35;;;;;;;;;11.67;11.67;;;;;-147.17;100.00;-15917.19;5003587;27;51835;-43
2022/10/19 04:30:00;;;;;;;;;13.67;13.00;;;;;-147.17;100.00;-15917.19;4994431;27;52488;-43
2022/10/19 04:32:25;;;;;;;;;12.67;11.67;;;;;-147.17;100.00;-15917.19;4995156;27;51017;-43
2022/10/19 04:34:51;;;;;;;;;9.67;9.67;;;;;-147.17;100.00;-15917.19;4994256;27;52812;-44
2022/10/19 04:37:16;;;;;;;;;10.33;10.33;;;;;-147.17;100.00;-15917.19;4998693;27;66315;-44
2022/10/19 04:39:43;;;;;;;;;13.00;12.00;;;;;-147.17;100.00;-15917.19;4991214;27;51273;-43
2022/10/19 04:42:08;;;;;;;;;10.33;9.33;;;;;-147.17;100.00;-15917.19;4994410;27;51715;-44
2022/10/19 04:44:33;;;;;;;;;12.00;11.67;;;;;-147.17;100.00;-15917.19;4997410;27;51300;-44
2022/10/19 04:46:59;;;;;;;;;12.00;11.00;;;;;-147.17;100.00;-15917.19;4990401;27;55556;-44
2022/10/19 04:49:24;;;;;;;;;11.00;10.00;;;;;-147.17;100.00;-15917.19;4991081;28;51119;-44
2022/10/19 04:51:49;;;;;;;;;12.67;11.00;;;;;-147.17;100.00;-15917.19;4998055;27;51283;-44
2022/10/19 04:54:15;;;;;;;;;14.67;11.00;;;;;-147.17;100.00;-15917.19;5005808;27;51325;-44
2022/10/19 04:56:40;;;;;;;;;10.00;9.00;;;;;-147.17;100.00;-15917.19;4999474;27;51075;-44
2022/10/19 04:59:05;;;;;;;;;11.33;11.00;;;;;-147.17;100.00;-15917.19;4998869;27;51158;-44
2022/10/19 05:01:31;;;;;;;;;13.33;12.00;;;;;-147.17;100.00;-15917.19;5063369;27;51895;-43
2022/10/19 05:04:00;;;;;;;;;12.00;12.00;;;;;-147.17;100.00;-15917.19;4998569;27;51249;-44
2022/10/19 05:06:26;;;;;;;;;13.00;13.00;;;;;-147.17;100.00;-15917.19;4998735;27;51105;-43
2022/10/19 05:08:52;;;;;;;;;16.33;13.00;;;;;-147.17;100.00;-15917.19;4997955;27;51274;-43
2022/10/19 05:11:18;;;;;;;;;13.67;13.67;;;;;-147.17;100.00;-15917.19;5060676;27;51115;-43
2022/10/19 05:13:44;;;;;;;;;12.00;12.00;;;;;-147.17;100.00;-15917.19;5002977;27;51066;-44
2022/10/19 05:16:12;;;;;;;;;14.33;14.00;;;;;-147.17;100.00;-15917.19;5002320;27;52422;-45
2022/10/19 05:18:38;;;;;;;;;11.67;11.00;;;;;-147.17;100.00;-15917.19;5004473;27;51580;-44
2022/10/19 05:21:05;;;;;;;;;10.00;9.00;;;;;-147.17;100.00;-15917.19;5004575;27;51205;-44
2022/10/19 05:23:32;;;;;;;;;13.00;12.67;;;;;-147.17;100.00;-15917.19;4997208;27;51187;-44
2022/10/19 05:26:06;;;;;;;;;13.00;12.00;;;;;-147.17;100.00;-15917.19;5000132;27;51276;-44
2022/10/19 05:28:32;;;;;;;;;10.33;9.00;;;;;-147.17;100.00;-15917.19;5062035;27;51106;-44
2022/10/19 05:31:25;;;;;;;;;9.00;8.67;;;;;-147.17;100.00;-15917.19;5008623;27;51754;-43
2022/10/19 05:33:50;;;;;;;;;11.33;10.67;;;;;-147.17;100.00;-15917.19;4997870;27;51695;-44
2022/10/19 05:36:33;;;;;;;;;12.00;11.33;;;;;-147.17;100.00;-15917.19;4997520;27;52162;-44
2022/10/19 05:39:02;;;;;;;;;12.33;12.00;;;;;-147.17;100.00;-15917.19;4999543;27;51100;-44
2022/10/19 05:41:27;;;;;;;;;13.00;12.00;;;;;-147.17;100.00;-15917.19;5003681;27;51316;-44
2022/10/19 05:43:55;;;;;;;;;12.67;12.00;;;;;-147.17;100.00;-15917.19;5000564;27;51224;-44
2022/10/19 05:46:22;;;;;;;;;14.33;14.33;;;;;-147.17;100.00;-15917.19;5068768;27;51983;-44
2022/10/19 05:48:48;;;;;;;;;14.67;13.67;;;;;-147.17;100.00;-15917.19;5002165;27;51218;-44
2022/10/19 05:51:17;;;;;;;;;11.67;11.67;;;;;-147.17;100.00;-15917.19;5004214;27;51130;-44
2022/10/19 05:53:42;;;;;;;;;11.67;11.00;;;;;-147.17;100.00;-15917.19;5005949;27;51184;-44
2022/10/19 05:56:12;;;;;;;;;13.00;13.00;;;;;-147.17;100.00;-15917.19;5004515;27;52037;-49
2022/10/19 05:58:37;;;;;;;;;13.00;12.33;;;;;-147.17;100.00;-15917.19;5003836;27;51075;-44
2022/10/19 06:01:02;;;;;;;;;11.33;10.00;;;;;-147.17;100.00;-15917.19;5002816;27;52093;-44
2022/10/19 06:03:28;;;;;;;;;12.00;11.00;;;;;-147.17;100.00;-15917.19;5053786;27;50912;-43
2022/10/19 06:05:54;;;;;;;;;15.00;13.33;;;;;-147.17;100.00;-15917.19;5005229;28;51751;-43
2022/10/19 06:08:21;;;;;;;;;14.33;14.00;;;;;-147.17;100.00;-15917.19;4999713;27;51188;-43
2022/10/19 06:10:48;;;;;;;;;11.33;10.00;;;;;-147.17;100.00;-15917.19;5005107;27;51175;-43
2022/10/19 06:13:15;;;;;;;;;11.67;11.33;;;;;-147.17;100.00;-15917.19;5005900;27;52163;-44
2022/10/19 06:15:40;;;;;;;;;17.33;14.67;;;;;-147.17;100.00;-15917.19;5005121;27;54694;-45
2022/10/19 06:18:07;;;;;;;;;10.67;10.67;;;;;-147.17;100.00;-15917.19;5002426;27;51200;-44
2022/10/19 06:20:38;;;;;;;;;11.67;11.33;;;;;-147.17;100.00;-15917.19;5002371;27;53004;-44
2022/10/19 06:23:04;;;;;;;;;15.33;13.00;;;;;-147.17;100.00;-15917.19;5004475;27;51308;-44
2022/10/19 06:25:30;;;;;;;;;11.33;11.00;;;;;-147.17;100.00;-15917.19;5066573;27;52785;-44
2022/10/19 06:27:56;;;;;;;;;6.33;6.00;;;;;-147.17;100.00;-15917.19;5008834;27;51216;-44
2022/10/19 06:30:21;;;;;;;;;12.00;12.00;;;;;-147.17;100.00;-15917.19;5003680;27;51075;-44
2022/10/19 06:32:47;;;;;;;;;14.00;13.00;;;;;-147.17;100.00;-15917.19;5000019;27;51290;-44
2022/10/19 06:35:12;;;;;;;;;14.00;14.00;;;;;-147.17;100.00;-15917.19;4998973;27;51073;-44
2022/10/19 06:37:38;;;;;;;;;11.67;11.00;;;;;-147.17;100.00;-15917.19;5001386;27;51318;-44
2022/10/19 06:40:03;;;;;;;;;13.00;13.00;;;;;-147.17;100.00;-15917.19;5007758;27;51241;-43
2022/10/19 06:42:29;;;;;;;;;14.00;12.67;;;;;-147.17;100.00;-15917.19;5002034;27;51248;-43
2022/10/19 06:44:54;;;;;;;;;13.00;13.00;;;;;-147.17;100.00;-15917.19;4994456;27;51680;-44
2022/10/19 06:47:19;;;;;;;;;14.67;14.00;;;;;-147.17;100.00;-15917.19;4994722;28;55694;-44
2022/10/19 06:49:45;;;;;;;;;12.00;11.00;;;;;-147.17;100.00;-15917.19;4996615;28;51007;-44
2022/10/19 06:52:10;;;;;;;;;13.67;13.33;;;;;-147.17;100.00;-15917.19;4998059;27;50993;-44
2022/10/19 06:54:35;;;;;;;;;13.67;12.67;;;;;-147.17;100.00;-15917.19;5009775;27;53171;-44
2022/10/19 06:57:00;;;;;;;;;12.00;12.00;;;;;-147.17;100.00;-15917.19;4996907;28;55492;-44
2022/10/19 06:59:26;;;;;;;;;9.00;8.67;;;;;-147.17;100.00;-15917.19;5009888;28;51119;-44
2022/10/19 07:01:51;;;;;;;;;12.00;11.67;;;;;-147.17;100.00;-15917.19;5004417;28;51078;-43
2022/10/19 07:04:16;;;;;;;;;14.67;13.67;;;;;-147.17;100.00;-15917.19;4998567;27;60238;-43
2022/10/19 07:06:42;;;;;;;;;14.67;12.00;;;;;-147.17;100.00;-15917.19;5009522;27;51012;-44
2022/10/19 07:09:07;;;;;;;;;15.33;14.67;;;;;-147.17;100.00;-15917.19;5004060;27;52509;-44
2022/10/19 07:11:32;;;;;;;;;15.67;14.67;;;;;-147.17;100.00;-15917.19;5010514;27;51391;-44
2022/10/19 07:13:58;;;;;;;;;12.00;11.00;;;;;-147.17;100.00;-15917.19;5007046;27;51888;-44
2022/10/19 07:16:23;;;;;;;;;15.00;14.00;;;;;-147.17;100.00;-15917.19;4998548;27;51065;-43
2022/10/19 07:18:52;;;;;;;;;13.67;13.00;;;;;-147.17;100.00;-15917.19;5005359;27;51096;-45
2022/10/19 07:21:19;;;;;;;;;15.33;13.33;;;;;-147.17;100.00;-15917.19;4998592;27;51235;-44
2022/10/19 07:23:48;;;;;;;;;14.67;14.67;;;;;-147.17;100.00;-15917.19;4999611;27;51298;-45
2022/10/19 07:26:23;;;;;;;;;13.67;12.67;;;;;-147.17;100.00;-15917.19;5025818;27;51926;-43
2022/10/19 07:28:49;;;;;;;;;13.00;12.33;;;;;-147.17;100.00;-15917.19;5009915;27;51100;-44
2022/10/19 07:31:19;;;;;;;;;14.67;13.67;;;;;-147.17;100.00;-15917.19;4991614;27;51199;-44
2022/10/19 07:33:45;;;;;;;;;16.00;14.67;;;;;-147.17;100.00;-15917.19;5073344;27;52863;-45
2022/10/19 07:36:12;;;;;;;;;14.67;13.33;;;;;-147.17;100.00;-15917.19;5007078;27;51078;-44
2022/10/19 07:38:37;;;;;;;;;12.33;11.33;;;;;-147.17;100.00;-15917.19;5004846;27;54479;-44
2022/10/19 07:41:09;;;;;;;;;13.67;13.67;;;;;-147.17;100.00;-15917.19;4998004;27;51288;-44
2022/10/19 07:43:35;;;;;;;;;15.33;14.00;;;;;-147.17;100.00;-15917.19;4999508;27;51143;-45
2022/10/19 07:46:03;;;;;;;;;13.00;13.00;;;;;-147.17;100.00;-15917.19;4989383;27;51828;-44
2022/10/19 07:48:28;;;;;;;;;14.67;13.00;;;;;-147.17;100.00;-15917.19;5006917;27;51362;-44
2022/10/19 07:50:54;;;;;;;;;16.00;15.67;;;;;-147.17;100.00;-15917.19;4997418;28;51113;-44
2022/10/19 07:53:20;;;;;;;;;14.00;12.33;;;;;-147.17;100.00;-15917.19;4996586;27;52799;-44
2022/10/19 07:55:45;;;;;;;;;15.33;14.33;;;;;-147.17;100.00;-15917.19;5020282;27;51119;-43
2022/10/19 07:58:10;;;;;;;;;16.67;15.67;;;;;-147.17;100.00;-15917.19;5004294;27;50928;-44
2022/10/19 08:00:36;;;;;;;;;15.33;14.33;;;;;-147.17;100.00;-15917.19;4997978;27;51201;-45
2022/10/19 08:03:01;;;;;;;;;16.67;15.00;;;;;-147.17;100.00;-15917.19;5002867;27;52213;-43
2022/10/19 08:05:26;;;;;;;;;14.67;14.67;;;;;-147.17;100.00;-15917.19;5062743;27;51135;-44
2022/10/19 08:07:52;;;;;;;;;15.67;14.67;;;;;-147.17;100.00;-15917.19;5006941;27;51853;-43
2022/10/19 08:10:17;;;;;;;;;15.67;14.67;;;;;-147.17;100.00;-15917.19;5000873;27;51151;-44
2022/10/19 08:12:42;;;;;;;;;15.67;14.00;;;;;-147.17;100.00;-15917.19;4994095;27;51705;-44
2022/10/19 08:15:08;;;;;;;;;12.33;10.67;;;;;-147.17;100.00;-15917.19;4997710;27;51101;-44
2022/10/19 08:17:38;;;;;;;;;12.00;10.33;;;;;-147.17;100.00;-15917.19;5000114;27;51507;-44
2022/10/19 08:20:06;;;;;;;;;12.00;11.67;;;;;-147.17;100.00;-15917.19;5001514;27;51176;-44
2022/10/19 08:22:32;;;;;;;;;16.67;16.33;;;;;-147.17;100.00;-15917.19;5066492;27;52075;-44
2022/10/19 08:24:57;;;;;;;;;12.00;12.00;;;;;-147.17;100.00;-15917.19;4996507;27;51073;-43
2022/10/19 08:27:23;;;;;;;;;14.67;14.67;;;;;-147.17;100.00;-15917.19;5001526;27;51177;-44
2022/10/19 08:29:48;;;;;;;;;15.33;13.67;;;;;-147.17;100.00;-15917.19;5000185;27;51388;-45
2022/10/19 08:32:13;;;;;;;;;11.00;10.00;;;;;-147.17;100.00;-15917.19;4999000;27;51705;-44
2022/10/19 08:34:39;;;;;;;;;15.00;14.00;;;;;-147.17;100.00;-15917.19;5000319;27;51103;-42
2022/10/19 08:37:04;;;;;;;;;14.00;12.00;;;;;-147.17;100.00;-15917.19;5007382;28;50990;-43
2022/10/19 08:39:30;;;;;;;;;14.00;14.00;;;;;-147.17;100.00;-15917.19;5002615;27;51118;-43
2022/10/19 08:42:07;;;;;;;;;16.00;14.00;;;;;-147.17;100.00;-15917.19;4989313;27;51772;-43
2022/10/19 08:44:51;;;;;;;;;12.33;11.67;;;;;-147.17;100.00;-15917.19;4989248;28;51133;-43
2022/10/19 08:47:39;;;;;;;;;15.00;14.00;;;;;-147.17;100.00;-15917.19;5004236;28;51045;-43
2022/10/19 08:50:17;;;;;;;;;16.33;13.33;;;;;-147.17;100.00;-15917.19;5000116;28;51048;-44
2022/10/19 08:52:48;;;;;;;;;12.00;11.67;;;;;-147.17;100.00;-15917.19;5006505;27;52223;-44
2022/10/19 08:55:18;;;;;;;;;12.67;12.00;;;;;-147.17;100.00;-15917.19;4995721;28;51151;-44
2022/10/19 08:57:43;;;;;;;;;12.00;12.00;;;;;-147.17;100.00;-15917.19;5008907;28;51138;-44
2022/10/19 09:00:19;;;;;;;;;10.33;10.00;;;;;-147.17;100.00;-15917.19;5075466;27;51402;-43
2022/10/19 09:02:57;;;;;;;;;12.00;12.00;;;;;-147.17;100.00;-15917.19;5054914;27;51618;-44
2022/10/19 09:05:30;;;;;;;;;11.33;11.33;;;;;-147.17;100.00;-15917.19;5065642;27;51111;-44
2022/10/19 09:07:56;;;;;;;;;9.00;9.00;;;;;-147.17;100.00;-15917.19;5010178;27;51117;-44
2022/10/19 09:10:28;;;;;;;;;10.00;9.67;;;;;-147.17;100.00;-15917.19;5004843;28;51385;-44
2022/10/19 09:13:07;;;;;;;;;13.67;11.67;;;;;-147.17;100.00;-15917.19;5010843;27;51061;-44
2022/10/19 09:15:38;;;;;;;;;13.00;13.00;;;;;-147.17;100.00;-15917.19;5004317;28;51121;-44
2022/10/19 09:18:17;;;;;;;;;12.33;11.67;;;;;-147.17;100.00;-15917.19;5004162;27;51149;-44
2022/10/19 09:20:46;;;;;;;;;9.00;9.00;;;;;-147.17;100.00;-15917.19;5000931;27;51194;-44
2022/10/19 09:23:30;;;;;;;;;12.00;11.00;;;;;-147.17;100.00;-15917.19;5002859;28;51980;-45
2022/10/19 09:25:56;;;;;;;;;5.33;5.33;;;;;-147.17;100.00;-15917.19;5011443;28;50842;-45
2022/10/19 09:28:27;;;;;;;;;10.67;9.67;;;;;-147.17;100.00;-15917.19;5011107;28;50965;-45
2022/10/19 09:30:56;;;;;;;;;11.00;10.67;;;;;-147.17;100.00;-15917.19;5011664;27;50947;-45
2022/10/19 09:33:31;;;;;;;;;9.67;9.33;;;;;-147.17;100.00;-15420.25;5009911;28;52876;-46
2022/10/19 09:35:59;;;;;;;;;7.00;6.00;;;;;-147.17;100.00;-13189.88;5011350;28;51197;-45
2022/10/19 09:38:27;;;;;;;;;11.00;9.00;;;;;-147.17;100.00;-9965.91;4995234;28;50991;-46
2022/10/19 09:40:52;;;;;;;;;9.33;9.33;;;;;-147.17;100.00;-14924.75;5011702;28;51458;-45
2022/10/19 09:43:20;;;;;;;;;12.00;12.00;;;;;-147.17;100.00;-15917.19;5010918;28;51878;-45
2022/10/19 09:46:12;;;;;;;;;9.67;9.00;;;;;-147.17;100.00;-10958.19;5002767;28;50804;-52
2022/10/19 09:48:46;;;;;;;;;10.33;10.33;;;;;-147.17;100.00;-8643.78;4998859;28;51099;-46
2022/10/19 09:51:14;;;;;;;;;9.00;9.00;;;;;-147.17;100.00;4318.66;5010733;28;51121;-46
2022/10/19 09:53:55;;;;;;;;;10.00;10.00;;;;;-147.17;100.00;-6106.78;5001176;27;52609;-45
2022/10/19 09:56:25;;;;;;;;;10.67;10.67;;;;;-147.17;100.00;-11475.56;5008651;28;51325;-45
2022/10/19 09:58:53;;;;;;;;;11.00;11.00;;;;;-147.17;100.00;-14479.47;5010932;28;50841;-45
2022/10/19 10:01:36;;;;;;;;;7.67;7.00;;;;;-147.17;100.00;-15917.19;5010801;28;51327;-46
2022/10/19 10:04:13;;;;;;;;;9.00;9.00;;;;;-147.17;100.00;-15917.19;5022021;27;51140;-46
2022/10/19 10:06:39;;;;;;;;;11.67;11.00;;;;;-147.17;100.00;-15917.19;5003983;27;50894;-46
2022/10/19 10:09:05;;;;;;;;;10.67;10.67;;;;;-147.17;100.00;-15917.19;5010719;27;50972;-45
2022/10/19 10:11:34;;;;;;;;;10.00;9.67;;;;;-147.17;100.00;-15917.19;5010982;28;51185;-46
2022/10/19 10:14:11;;;;;;;;;9.67;9.67;;;;;-147.17;100.00;-15917.19;5010284;27;51931;-44
2022/10/19 10:16:37;;;;;;;;;10.00;9.33;;;;;-147.17;100.00;-15917.19;5010631;28;51096;-46
2022/10/19 10:19:06;;;;;;;;;10.33;10.00;;;;;-147.17;100.00;-15917.19;5007867;27;51083;-45
2022/10/19 10:21:44;;;;;;;;;10.00;9.00;;;;;-147.17;100.00;-15917.19;5000359;27;51322;-46
2022/10/19 10:24:09;;;;;;;;;10.00;10.00;;;;;-147.17;100.00;-15917.19;5010428;28;51090;-45
2022/10/19 10:26:40;;;;;;;;;8.33;8.33;;;;;-147.17;100.00;-15917.19;4998976;28;50978;-45
2022/10/19 10:29:36;;;;;;;;;11.00;11.00;;;;;-147.17;100.00;-15917.19;4995613;27;51103;-46
2022/10/19 10:32:18;;;;;;;;;11.00;10.67;;;;;-147.17;100.00;-15917.19;5011687;27;51146;-45
2022/10/19 10:34:47;;;;;;;;;11.33;10.33;;;;;-147.17;100.00;-15917.19;5009267;27;50979;-46
2022/10/19 10:37:27;;;;;;;;;11.00;10.67;;;;;-147.17;100.00;-15917.19;5010087;27;51188;-45
2022/10/19 10:39:54;;;;;;;;;10.00;10.00;;;;;-147.17;100.00;-15917.19;4997187;28;51031;-46
2022/10/19 10:42:45;;;;;;;;;9.67;9.67;;;;;-147.17;100.00;-15917.19;4997511;28;51025;-47
2022/10/19 10:45:27;;;;;;;;;10.00;9.00;;;;;-147.17;100.00;-15917.19;4996982;27;52135;-46
2022/10/19 10:47:53;;;;;;;;;10.00;9.33;;;;;-147.17;100.00;-15917.19;5009989;28;51095;-45
2022/10/19 10:50:30;;;;;;;;;11.00;10.00;;;;;-147.17;100.00;-15917.19;5009953;28;51248;-46
2022/10/19 10:52:58;;;;;;;;;12.67;12.67;;;;;-147.17;100.00;-15917.19;5010125;27;51065;-46
2022/10/19 10:55:25;;;;;;;;;8.00;8.00;;;;;-147.17;100.00;-15917.19;5010068;28;51960;-46
2022/10/19 10:57:57;;;;;;;;;9.33;9.33;;;;;-147.17;100.00;-15917.19;5010252;28;51304;-46